Flight Track Log - Related Links

Times and Time Zones

All times are in EDT time to prevent confusion due to time zone crossing. See the CPT7773 flight status page for this flight to view local times or setup timezone preferences in your user account.

Time Position Orientation Groundspeed Altitude Reporting Facility
EDT Latitude Longitude Course Direction KTS MPH feet Rate Location/Type
Thu 07:47:04 PM 44.5481 -108.9794 85° East 121 139 6,600  Level Salt Lake Center
Thu 07:48:06 PM 44.5511 -108.9347 85° East 117 135 7,500 871 Climbing Salt Lake Center
Thu 07:49:08 PM 44.5397 -108.8853 108° East 122 140 8,400 823 Climbing Salt Lake Center
Thu 07:50:10 PM 44.5311 -108.8331 103° East 130 150 9,200 871 Climbing Salt Lake Center
Thu 07:51:12 PM 44.5033 -108.7781 125° Southeast 138 159 10,200 823 Climbing Salt Lake Center
Thu 07:52:14 PM 44.4747 -108.7369 134° Southeast 144 166 10,900 387 Climbing Salt Lake Center
Thu 07:53:16 PM 44.4450 -108.6914 132° Southeast 150 173 11,000 48 Climbing Salt Lake Center
Thu 07:54:18 PM 44.4117 -108.6400 132° Southeast 162 186 11,000  Level Salt Lake Center
Thu 07:55:20 PM 44.3772 -108.5881 133° Southeast 173 199 11,000  Level Salt Lake Center
Thu 07:56:22 PM 44.3436 -108.5344 131° Southeast 179 206 11,000  Level Salt Lake Center
Thu 07:57:24 PM 44.3033 -108.4711 132° Southeast 182 209 11,000  Level Salt Lake Center
Thu 07:58:26 PM 44.2681 -108.4192 133° Southeast 183 211 11,000  Level Salt Lake Center
Thu 07:59:28 PM 44.2328 -108.3642 132° Southeast 186 214 11,000  Level Salt Lake Center
Thu 08:00:29 PM 44.1975 -108.3094 132° Southeast 189 217 11,000  Level Salt Lake Center
Thu 08:01:31 PM 44.1622 -108.2544 132° Southeast 190 219 11,000  Level Salt Lake Center
Thu 08:02:33 PM 44.1194 -108.1900 133° Southeast 190 219 11,000  Level Salt Lake Center
Thu 08:03:35 PM 44.0847 -108.1356 132° Southeast 189 217 11,000  Level Salt Lake Center
Thu 08:04:37 PM 44.0492 -108.0808 132° Southeast 190 219 11,000  Level Salt Lake Center
Thu 08:05:39 PM 44.0139 -108.0281 133° Southeast 189 217 11,000  Level Salt Lake Center
Thu 08:06:41 PM 43.9789 -107.9747 132° Southeast 188 216 11,000  Level Salt Lake Center
Thu 08:07:43 PM 43.9461 -107.9214 130° Southeast 186 214 11,000  Level Salt Lake Center
Thu 08:08:44 PM 43.9117 -107.8514 124° Southeast 184 212 11,000  Level Salt Lake Center
Thu 08:09:46 PM 43.8839 -107.7939 124° Southeast 182 209 11,000  Level Salt Lake Center
Thu 08:10:48 PM 43.8553 -107.7381 125° Southeast 181 208 11,000  Level Salt Lake Center
Thu 08:11:50 PM 43.8256 -107.6819 126° Southeast 181 208 11,000  Level Salt Lake Center
Thu 08:12:52 PM 43.7964 -107.6247 125° Southeast 181 208 11,000  Level Salt Lake Center
Thu 08:13:54 PM 43.7675 -107.5697 126° Southeast 180 207 11,000  Level Salt Lake Center
Thu 08:14:55 PM 43.7378 -107.5133 126° Southeast 180 207 11,000  Level Salt Lake Center
Thu 08:15:57 PM 43.7028 -107.4444 125° Southeast 181 208 11,000  Level Salt Lake Center
Thu 08:16:59 PM 43.6739 -107.3875 125° Southeast 182 209 11,000  Level Salt Lake Center
Thu 08:18:01 PM 43.6436 -107.3303 126° Southeast 183 211 11,000  Level Salt Lake Center
Thu 08:19:03 PM 43.6139 -107.2736 126° Southeast 183 211 11,000  Level Salt Lake Center
Thu 08:20:04 PM 43.5850 -107.2178 126° Southeast 182 209 11,000 49 Level Salt Lake Center
Thu 08:21:06 PM 43.5567 -107.1611 125° Southeast 181 208 11,100 48 Climbing Salt Lake Center
Thu 08:22:09 PM 43.5206 -107.0922 126° Southeast 182 209 11,100  Level Salt Lake Center
Thu 08:23:10 PM 43.4900 -107.0358 127° Southeast 184 212 11,100 -49 Level Salt Lake Center
Thu 08:24:12 PM 43.4586 -106.9808 128° Southeast 184 212 11,000  Descending Salt Lake Center
Thu 08:25:14 PM 43.4278 -106.9264 128° Southeast 187 215 11,100 49 Climbing Salt Lake Center
Thu 08:26:15 PM 43.3975 -106.8631 123° Southeast 180 207 11,100  Level Salt Lake Center
Thu 08:27:17 PM 43.3556 -106.8306 151° Southeast 184 212 11,100 -387 Level Salt Lake Center
Thu 08:28:19 PM 43.2964 -106.8128 168° South 193 222 10,300 -484 Descending Salt Lake Center
Thu 08:29:21 PM 43.2428 -106.7983 169° South 199 229 10,100 -145 Descending Salt Lake Center
Thu 08:30:23 PM 43.1878 -106.7783 165° South 188 216 10,000 -290 Descending Salt Lake Center
Thu 08:31:25 PM 43.1383 -106.7622 167° South 189 217 9,500 -439 Descending Salt Lake Center
Thu 08:32:26 PM 43.0892 -106.7447 165° South 190 219 9,100 -268 Descending Salt Lake Center
Thu 08:33:17 PM 43.0403 -106.7417 177° South 192 221 9,000 -53 Descending Denver Center
Thu 08:34:19 PM 42.9944 -106.7494 187° South 183 211 9,000  Level Denver Center
Thu 08:35:21 PM 42.9444 -106.7600 189° South 172 198 9,000  Level Denver Center
Thu 08:36:23 PM 42.9039 -106.7681 188° South 165 190 9,000  Level Denver Center

Login

Don't have an account? Register now (free) for customized features, flight alerts, and more!